Time;durP1;ratioP1;P1;durP2;ratioP2;P2;SDS_P1;SDS_P2;PMS_P1;PMS_P2;Temp;Humidity;BMP_temperature;BMP_pressure;BME280_temperature;BME280_humidity;BME280_pressure;Samples;Min_cycle;Max_cycle;Signal;HPM_P1;HPM_P2
2022/09/05 00:03:57;;;;;;;;;;;;;;;22.83;48.14;96153.09;10249495;28;3081;-46
2022/09/05 00:08:59;;;;;;;;;;;;;;;22.84;48.11;96157.28;10263982;28;2157;-48
2022/09/05 00:14:06;;;;;;;;;;;;;;;22.82;48.50;96148.84;10249221;28;3002;-46
2022/09/05 00:19:06;;;;;;;;;;;;;;;22.81;48.21;96147.28;10267245;28;3061;-45
2022/09/05 00:24:09;;;;;;;;;;;;;;;22.82;48.31;96148.84;10247386;28;2934;-49
2022/09/05 00:29:18;;;;;;;;;;;;;;;22.81;48.48;96147.28;10253360;28;3009;-44
2022/09/05 00:34:25;;;;;;;;;;;;;;;22.80;48.34;96148.34;10248446;28;3074;-47
2022/09/05 00:39:25;;;;;;;;;;;;;;;22.80;48.36;96148.34;10241988;28;3037;-48
2022/09/05 00:44:26;;;;;;;;;;;;;;;22.79;48.41;96142.28;10248340;28;3036;-45
2022/09/05 00:49:30;;;;;;;;;;;;;;;22.80;48.43;96140.41;10263283;28;2266;-48
2022/09/05 00:54:45;;;;;;;;;;;;;;;22.80;48.30;96135.13;10243267;28;3039;-45
2022/09/05 01:00:06;;;;;;;;;;;;;;;22.78;48.23;96142.53;10261082;28;3116;-49
2022/09/05 01:05:13;;;;;;;;;;;;;;;22.77;48.30;96135.69;10247286;28;2176;-48
2022/09/05 01:10:19;;;;;;;;;;;;;;;22.78;48.03;96139.91;10260294;28;2183;-46
2022/09/05 01:15:19;;;;;;;;;;;;;;;22.77;48.21;96139.13;10243877;28;2228;-48
2022/09/05 01:20:27;;;;;;;;;;;;;;;22.79;48.09;96133.56;10247285;28;1895;-44
2022/09/05 01:25:33;;;;;;;;;;;;;;;22.76;48.28;96139.38;10260541;28;2999;-44
2022/09/05 01:30:41;;;;;;;;;;;;;;;22.75;48.24;96141.22;10247995;28;3001;-45
2022/09/05 01:36:08;;;;;;;;;;;;;;;22.74;48.37;96137.03;10261840;28;2180;-46
2022/09/05 01:41:11;;;;;;;;;;;;;;;22.77;48.07;96139.13;10234393;28;3137;-45
2022/09/05 01:46:17;;;;;;;;;;;;;;;22.76;48.02;96139.38;10245574;28;3034;-45
2022/09/05 01:51:17;;;;;;;;;;;;;;;22.75;48.02;96143.88;10244938;28;2953;-45
2022/09/05 01:56:20;;;;;;;;;;;;;;;22.76;48.24;96144.69;10244219;28;2188;-46
2022/09/05 02:01:20;;;;;;;;;;;;;;;22.76;47.97;96152.59;10241651;28;3000;-45
2022/09/05 02:06:30;;;;;;;;;;;;;;;22.79;48.09;96149.41;10246238;28;3317;-44
2022/09/05 02:11:36;;;;;;;;;;;;;;;22.78;48.27;96153.91;10239749;28;2194;-45
2022/09/05 02:16:36;;;;;;;;;;;;;;;22.78;48.24;96147.81;10247386;28;3034;-45
2022/09/05 02:21:38;;;;;;;;;;;;;;;22.77;48.23;96151.56;10244708;28;3169;-47
2022/09/05 02:26:41;;;;;;;;;;;;;;;22.78;48.13;96155.75;10240852;28;3049;-44
2022/09/05 02:31:49;;;;;;;;;;;;;;;22.77;48.16;96162.13;10245448;28;2957;-46
2022/09/05 02:36:50;;;;;;;;;;;;;;;22.77;47.95;96148.91;10249738;28;3005;-46
2022/09/05 02:42:00;;;;;;;;;;;;;;;22.78;47.83;96145.19;10242885;28;3049;-44
2022/09/05 02:47:21;;;;;;;;;;;;;;;22.76;48.03;96149.97;10243984;28;3045;-46
2022/09/05 02:52:23;;;;;;;;;;;;;;;22.73;48.25;96156.59;10244502;28;3002;-45
2022/09/05 02:57:29;;;;;;;;;;;;;;;22.73;48.29;96153.19;10240415;28;2266;-44
2022/09/05 03:02:35;;;;;;;;;;;;;;;22.72;48.26;96156.88;10241437;28;3186;-45
2022/09/05 03:07:54;;;;;;;;;;;;;;;22.73;48.12;96161.09;10245246;28;3033;-45
2022/09/05 03:13:15;;;;;;;;;;;;;;;22.77;48.01;96156.84;10242616;28;2316;-44
2022/09/05 03:18:27;;;;;;;;;;;;;;;22.75;48.23;96164.25;10207484;28;3202;-44
2022/09/05 03:23:38;;;;;;;;;;;;;;;22.73;48.23;96163.75;10254003;28;2356;-45
2022/09/05 03:28:56;;;;;;;;;;;;;;;22.71;47.91;96165.88;10258823;28;3032;-44
2022/09/05 03:34:14;;;;;;;;;;;;;;;22.67;47.95;96169.06;10244192;28;2257;-45
2022/09/05 03:39:33;;;;;;;;;;;;;;;22.67;47.80;96167.50;10247165;28;3013;-45
2022/09/05 03:44:48;;;;;;;;;;;;;;;22.65;47.87;96155.34;10244290;28;3045;-45
2022/09/05 03:49:54;;;;;;;;;;;;;;;22.65;47.83;96162.47;10258241;28;2155;-47
2022/09/05 03:54:57;;;;;;;;;;;;;;;22.65;48.08;96163.25;10238214;28;2947;-46
2022/09/05 04:00:08;;;;;;;;;;;;;;;22.66;48.13;96156.13;10241928;28;3111;-47
2022/09/05 04:05:13;;;;;;;;;;;;;;;22.63;47.72;96157.47;10249051;28;3034;-45
2022/09/05 04:10:23;;;;;;;;;;;;;;;22.67;48.08;96147.13;10261691;28;2179;-43
2022/09/05 04:15:40;;;;;;;;;;;;;;;22.64;48.11;96147.69;10247524;28;3082;-46
2022/09/05 04:20:42;;;;;;;;;;;;;;;22.61;47.76;96137.66;10252494;28;3028;-46
2022/09/05 04:25:42;;;;;;;;;;;;;;;22.61;48.02;96143.75;10247832;28;3061;-44
2022/09/05 04:31:06;;;;;;;;;;;;;;;22.62;47.95;96142.69;10248152;28;3131;-44
2022/09/05 04:36:09;;;;;;;;;;;;;;;22.61;47.94;96151.66;10229400;28;3109;-46
2022/09/05 04:41:09;;;;;;;;;;;;;;;22.63;48.18;96154.03;10247805;28;2166;-45
2022/09/05 04:46:12;;;;;;;;;;;;;;;22.63;47.77;96156.66;10246134;28;3007;-43
2022/09/05 04:51:25;;;;;;;;;;;;;;;22.64;47.87;96164.34;10261109;28;3030;-46
2022/09/05 04:56:31;;;;;;;;;;;;;;;22.54;47.53;96161.75;10250206;28;2988;-44
2022/09/05 05:01:32;;;;;;;;;;;;;;;22.50;47.43;96167.84;10263690;28;3215;-47
2022/09/05 05:06:54;;;;;;;;;;;;;;;22.49;47.62;96188.19;10260733;28;3154;-43
2022/09/05 05:11:54;;;;;;;;;;;;;;;22.56;47.59;96178.13;10235873;28;3105;-47
2022/09/05 05:16:59;;;;;;;;;;;;;;;22.60;47.70;96189.75;10247099;28;3298;-45
2022/09/05 05:22:00;;;;;;;;;;;;;;;22.55;47.74;96192.38;10244387;28;2989;-43
2022/09/05 05:27:04;;;;;;;;;;;;;;;22.48;47.44;96197.16;10245131;28;3040;-47
2022/09/05 05:32:04;;;;;;;;;;;;;;;22.44;47.66;96198.78;10252381;28;2133;-46
2022/09/05 05:37:05;;;;;;;;;;;;;;;22.45;47.71;96212.78;10254489;28;3012;-44
2022/09/05 05:42:11;;;;;;;;;;;;;;;22.42;47.40;96214.13;10254199;28;3089;-46
2022/09/05 05:47:16;;;;;;;;;;;;;;;22.40;47.64;96213.59;10263685;28;3038;-45
2022/09/05 05:52:29;;;;;;;;;;;;;;;22.38;47.72;96213.09;10247318;28;3124;-44
2022/09/05 05:57:48;;;;;;;;;;;;;;;22.38;47.65;96214.97;10250289;28;3053;-44
2022/09/05 06:03:06;;;;;;;;;;;;;;;22.39;47.93;96214.69;10239903;28;3053;-45
2022/09/05 06:08:13;;;;;;;;;;;;;;;22.38;48.01;96215.72;10244632;28;2998;-44
2022/09/05 06:13:33;;;;;;;;;;;;;;;22.42;48.18;96221.28;10259233;28;2973;-43
2022/09/05 06:18:49;;;;;;;;;;;;;;;22.44;48.26;96222.56;10245464;28;3033;-44
2022/09/05 06:23:56;;;;;;;;;;;;;;;22.47;48.28;96227.31;10247841;28;2230;-45
2022/09/05 06:29:09;;;;;;;;;;;;;;;22.49;48.26;96230.47;10239098;28;2192;-43
2022/09/05 06:34:28;;;;;;;;;;;;;;;22.46;48.33;96227.59;10256173;28;2213;-45
2022/09/05 06:39:31;;;;;;;;;;;;;;;22.39;48.55;96225.25;10237652;28;1835;-46
2022/09/05 06:44:55;;;;;;;;;;;;;;;22.36;48.56;96230.28;10238773;28;2245;-45
2022/09/05 06:50:04;;;;;;;;;;;;;;;22.36;48.51;96223.13;10221003;28;3086;-46
2022/09/05 06:55:10;;;;;;;;;;;;;;;22.38;48.54;96222.88;10239083;28;2961;-46
2022/09/05 07:00:32;;;;;;;;;;;;;;;22.36;48.63;96220.50;10241305;28;3051;-46
2022/09/05 07:05:40;;;;;;;;;;;;;;;22.37;48.90;96226.56;10238384;28;2220;-45
2022/09/05 07:10:42;;;;;;;;;;;;;;;22.39;48.55;96227.88;10243030;28;3184;-45
2022/09/05 07:15:57;;;;;;;;;;;;;;;22.40;48.93;96236.59;10236611;28;3187;-48
2022/09/05 07:21:04;;;;;;;;;;;;;;;22.40;48.89;96242.66;10236906;28;3072;-49
2022/09/05 07:26:05;;;;;;;;;;;;;;;22.42;48.73;96239.75;10232188;28;3025;-45
2022/09/05 07:31:07;;;;;;;;;;;;;;;22.43;48.87;96244.75;10235828;28;2150;-45
2022/09/05 07:36:27;;;;;;;;;;;;;;;22.47;48.81;96245.00;10235829;28;3162;-45
2022/09/05 07:41:28;;;;;;;;;;;;;;;22.48;48.84;96247.38;10250557;28;3059;-46
2022/09/05 07:46:32;;;;;;;;;;;;;;;22.52;48.45;96250.28;10257163;28;2151;-45
2022/09/05 07:51:36;;;;;;;;;;;;;;;22.54;48.83;96248.94;10259639;28;3090;-43
2022/09/05 07:56:44;;;;;;;;;;;;;;;22.53;48.97;96257.13;10248698;28;3206;-45
2022/09/05 08:01:46;;;;;;;;;;;;;;;22.51;48.98;96254.75;10237890;28;2979;-45
2022/09/05 08:06:51;;;;;;;;;;;;;;;22.50;49.00;96255.03;10254720;28;2981;-46
2022/09/05 08:11:56;;;;;;;;;;;;;;;22.50;48.63;96247.13;10239819;28;3061;-44
2022/09/05 08:16:56;;;;;;;;;;;;;;;22.54;48.95;96253.44;10235969;28;3016;-44
2022/09/05 08:21:57;;;;;;;;;;;;;;;22.54;48.81;96238.38;10242154;28;2141;-44
2022/09/05 08:27:02;;;;;;;;;;;;;;;22.57;48.81;96245.72;10246466;28;2951;-44
2022/09/05 08:32:07;;;;;;;;;;;;;;;22.55;48.80;96244.41;10242247;28;3026;-45
2022/09/05 08:37:08;;;;;;;;;;;;;;;22.56;48.95;96241.53;10243311;28;2344;-45
2022/09/05 08:42:18;;;;;;;;;;;;;;;22.56;49.07;96235.44;10261256;28;2962;-45
2022/09/05 08:47:27;;;;;;;;;;;;;;;22.59;48.86;96235.72;10242888;28;2120;-48
2022/09/05 08:52:47;;;;;;;;;;;;;;;22.59;48.68;96241.00;10238690;28;2797;-44
2022/09/05 08:57:50;;;;;;;;;;;;;;;22.60;48.98;96232.00;10245235;28;2210;-46
2022/09/05 09:03:21;;;;;;;;;;;;;;;22.64;48.73;96227.75;10256467;28;2976;-46
2022/09/05 09:08:24;;;;;;;;;;;;;;;22.67;49.01;96221.13;10223101;28;2196;-45
2022/09/05 09:13:36;;;;;;;;;;;;;;;22.71;49.06;96231.94;10241224;28;2765;-46
2022/09/05 09:18:39;;;;;;;;;;;;;;;22.73;48.64;96219.25;10244535;28;2802;-44
2022/09/05 09:24:08;;;;;;;;;;;;;;;22.73;48.77;96214.72;10244196;28;3033;-46
2022/09/05 09:29:09;;;;;;;;;;;;;;;22.76;48.97;96210.75;10240937;28;2205;-44
2022/09/05 09:34:24;;;;;;;;;;;;;;;22.76;48.92;96208.91;10251778;28;2761;-45
2022/09/05 09:39:40;;;;;;;;;;;;;;;22.80;49.06;96206.47;10239030;28;2789;-44
2022/09/05 09:44:47;;;;;;;;;;;;;;;22.81;48.68;96200.16;10235337;28;2224;-43
2022/09/05 09:49:59;;;;;;;;;;;;;;;22.82;48.97;96196.44;10240250;28;2708;-44
2022/09/05 09:55:21;;;;;;;;;;;;;;;22.84;48.77;96199.56;10253882;28;2187;-46
2022/09/05 10:00:26;;;;;;;;;;;;;;;22.84;48.87;96203.03;10235309;28;2851;-43
2022/09/05 10:05:33;;;;;;;;;;;;;;;22.87;49.02;96205.13;10249677;28;2216;-45
2022/09/05 10:10:52;;;;;;;;;;;;;;;22.87;49.00;96202.47;10253080;28;2716;-44
2022/09/05 10:15:55;;;;;;;;;;;;;;;22.90;48.87;96187.91;10238370;28;2738;-45
2022/09/05 10:20:58;;;;;;;;;;;;;;;22.93;48.93;96198.72;10240432;28;3054;-46
2022/09/05 10:26:17;;;;;;;;;;;;;;;22.93;48.88;96193.44;10240520;28;2893;-45
2022/09/05 10:31:18;;;;;;;;;;;;;;;22.92;48.93;96191.06;10238050;28;2910;-53
2022/09/05 10:36:27;;;;;;;;;;;;;;;22.93;49.21;96187.34;10254279;28;2906;-44
2022/09/05 10:41:38;;;;;;;;;;;;;;;22.90;49.42;96182.59;10256852;28;2847;-46
2022/09/05 10:46:57;;;;;;;;;;;;;;;22.92;48.97;96170.69;10252261;28;2688;-46
2022/09/05 10:52:02;;;;;;;;;;;;;;;22.92;49.38;96165.41;10247581;28;2806;-47
2022/09/05 10:57:02;;;;;;;;;;;;;;;22.93;49.11;96166.22;10238020;28;2964;-51
2022/09/05 11:02:05;;;;;;;;;;;;;;;22.95;49.10;96164.88;10239641;28;2698;-49
2022/09/05 11:07:07;;;;;;;;;;;;;;;22.97;49.06;96160.09;10240495;28;2818;-44
2022/09/05 11:12:21;;;;;;;;;;;;;;;22.96;49.23;96157.69;10240549;28;2753;-46
2022/09/05 11:17:25;;;;;;;;;;;;;;;23.00;49.05;96156.88;10254495;28;2762;-45
2022/09/05 11:22:27;;;;;;;;;;;;;;;22.99;49.33;96160.59;10250073;28;2778;-46
2022/09/05 11:27:44;;;;;;;;;;;;;;;22.98;49.34;96153.72;10269976;28;2832;-46
2022/09/05 11:32:45;;;;;;;;;;;;;;;23.04;49.55;96157.88;10261908;28;2867;-45
2022/09/05 11:37:45;;;;;;;;;;;;;;;23.06;49.43;96147.81;10250830;28;2597;-47
2022/09/05 11:42:48;;;;;;;;;;;;;;;23.04;49.37;96147.31;10250242;28;2012;-51
2022/09/05 11:47:48;;;;;;;;;;;;;;;23.06;49.59;96145.19;10265171;28;2771;-45
2022/09/05 11:52:56;;;;;;;;;;;;;;;23.06;49.68;96147.06;10250005;28;2345;-48
2022/09/05 11:57:57;;;;;;;;;;;;;;;23.10;49.71;96138.25;10261918;28;3044;-45
2022/09/05 12:03:05;;;;;;;;;;;;;;;23.12;49.84;96138.00;10246095;28;2740;-49
2022/09/05 12:08:12;;;;;;;;;;;;;;;23.13;49.61;96129.78;10247374;28;2193;-45
2022/09/05 12:13:19;;;;;;;;;;;;;;;23.14;49.87;96130.56;10259103;28;2901;-47
2022/09/05 12:18:19;;;;;;;;;;;;;;;23.15;49.69;96126.84;10269412;28;2818;-46
2022/09/05 12:23:32;;;;;;;;;;;;;;;23.16;49.73;96123.16;10250726;28;2685;-46
2022/09/05 12:28:38;;;;;;;;;;;;;;;23.19;49.71;96112.00;10244018;28;2720;-46
2022/09/05 12:33:38;;;;;;;;;;;;;;;23.17;49.59;96122.06;10239482;28;2859;-46
2022/09/05 12:38:44;;;;;;;;;;;;;;;23.16;49.45;96117.88;10266461;28;2761;-47
2022/09/05 12:43:54;;;;;;;;;;;;;;;23.18;49.17;96126.31;10255080;28;2713;-48
2022/09/05 12:49:14;;;;;;;;;;;;;;;23.17;49.25;96114.13;10239534;28;2188;-46
2022/09/05 12:54:32;;;;;;;;;;;;;;;23.17;49.11;96114.94;10220318;28;2872;-45
2022/09/05 12:59:34;;;;;;;;;;;;;;;23.20;48.89;96103.00;10234548;28;2281;-44
2022/09/05 13:05:02;;;;;;;;;;;;;;;23.20;49.06;96105.66;10251524;28;2832;-45
2022/09/05 13:10:04;;;;;;;;;;;;;;;23.23;49.04;96102.44;10236400;28;2667;-46
2022/09/05 13:15:04;;;;;;;;;;;;;;;23.23;48.84;96105.06;10251998;28;2840;-46
2022/09/05 13:20:09;;;;;;;;;;;;;;;23.26;48.60;96091.31;10240840;28;2762;-46
2022/09/05 13:25:15;;;;;;;;;;;;;;;23.22;48.68;96088.44;10254060;28;2757;-46
2022/09/05 13:30:15;;;;;;;;;;;;;;;23.23;49.02;96082.06;10258079;28;2746;-47
2022/09/05 13:35:18;;;;;;;;;;;;;;;23.24;48.74;96074.94;10240460;28;2692;-45
2022/09/05 13:40:19;;;;;;;;;;;;;;;23.25;48.61;96076.47;10239547;28;2764;-47
2022/09/05 13:45:19;;;;;;;;;;;;;;;23.23;48.54;96075.97;10239952;28;2821;-49
2022/09/05 13:50:25;;;;;;;;;;;;;;;23.25;48.40;96073.84;10238082;28;2219;-49
2022/09/05 13:55:36;;;;;;;;;;;;;;;23.23;48.48;96060.09;10251878;28;2773;-46
2022/09/05 14:00:37;;;;;;;;;;;;;;;23.25;48.71;96053.47;10254492;28;2619;-51
2022/09/05 14:05:43;;;;;;;;;;;;;;;23.30;48.76;96055.28;10240627;28;2811;-49
2022/09/05 14:11:13;;;;;;;;;;;;;;;23.28;48.96;96050.28;10238499;28;2155;-50
2022/09/05 14:16:18;;;;;;;;;;;;;;;23.29;48.95;96037.81;10206542;28;2831;-52
2022/09/05 14:21:19;;;;;;;;;;;;;;;23.30;49.25;96034.13;10250019;28;2696;-50
2022/09/05 14:26:21;;;;;;;;;;;;;;;23.30;49.09;96029.63;10231737;28;2758;-48
2022/09/05 14:31:25;;;;;;;;;;;;;;;23.29;48.83;96032.53;10246014;28;2765;-49
2022/09/05 14:36:31;;;;;;;;;;;;;;;23.28;49.09;96034.41;10257730;28;2777;-46
2022/09/05 14:41:44;;;;;;;;;;;;;;;23.28;48.83;96023.03;10243662;28;2754;-48
2022/09/05 14:46:48;;;;;;;;;;;;;;;23.27;49.03;96024.88;10243085;28;2832;-45
2022/09/05 14:51:51;;;;;;;;;;;;;;;23.27;48.95;96024.88;10262070;28;2739;-46
2022/09/05 14:56:54;;;;;;;;;;;;;;;23.28;48.95;96028.31;10243371;28;2678;-45
2022/09/05 15:02:03;;;;;;;;;;;;;;;23.25;48.94;96029.66;10240796;28;3034;-46
2022/09/05 15:07:08;;;;;;;;;;;;;;;23.27;49.08;96024.09;10245829;28;2265;-47
2022/09/05 15:12:16;;;;;;;;;;;;;;;23.28;49.04;96020.38;10242360;28;2755;-48
2022/09/05 15:17:19;;;;;;;;;;;;;;;23.26;49.12;96019.88;10241652;28;2765;-45
2022/09/05 15:22:26;;;;;;;;;;;;;;;23.26;48.89;96015.38;10242089;28;2196;-49
2022/09/05 15:27:28;;;;;;;;;;;;;;;23.25;48.89;96016.44;10243530;28;2761;-47
2022/09/05 15:32:28;;;;;;;;;;;;;;;23.25;49.06;96010.38;10258734;28;2731;-46
2022/09/05 15:37:39;;;;;;;;;;;;;;;23.25;49.16;96008.50;10244482;28;2816;-48
2022/09/05 15:42:46;;;;;;;;;;;;;;;23.27;48.67;96000.28;10240933;28;2777;-49
2022/09/05 15:47:57;;;;;;;;;;;;;;;23.27;49.00;95997.63;10242949;28;2806;-51
2022/09/05 15:52:57;;;;;;;;;;;;;;;23.28;48.87;95988.66;10263938;28;2250;-47
2022/09/05 15:57:59;;;;;;;;;;;;;;;23.26;48.55;95990.78;10245308;28;3134;-47
2022/09/05 16:03:00;;;;;;;;;;;;;;;23.24;48.70;95995.56;10264054;28;2752;-48
2022/09/05 16:08:06;;;;;;;;;;;;;;;23.25;48.92;95983.91;10251209;28;2225;-47
2022/09/05 16:13:18;;;;;;;;;;;;;;;23.23;48.69;95994.78;10251448;28;2741;-45
2022/09/05 16:18:37;;;;;;;;;;;;;;;23.24;48.68;96003.50;10244500;28;2854;-46
2022/09/05 16:23:39;;;;;;;;;;;;;;;23.23;48.89;95986.84;10248650;28;2767;-48
2022/09/05 16:28:42;;;;;;;;;;;;;;;23.24;49.19;95987.66;10262411;28;2156;-51
2022/09/05 16:33:42;;;;;;;;;;;;;;;23.24;49.19;95988.44;10263003;28;2866;-47
2022/09/05 16:38:58;;;;;;;;;;;;;;;23.25;49.49;95989.19;10247913;28;2654;-45
2022/09/05 16:44:03;;;;;;;;;;;;;;;23.26;49.32;95982.84;10246811;28;2241;-48
2022/09/05 16:49:14;;;;;;;;;;;;;;;23.28;49.45;95983.34;10264375;28;2708;-49
2022/09/05 16:54:18;;;;;;;;;;;;;;;23.30;49.73;95987.28;10259419;28;2196;-47
2022/09/05 16:59:19;;;;;;;;;;;;;;;23.29;49.75;95985.72;10248519;28;2763;-49
2022/09/05 17:04:22;;;;;;;;;;;;;;;23.30;49.80;95981.22;10262072;28;2745;-49
2022/09/05 17:09:23;;;;;;;;;;;;;;;23.30;50.02;95981.22;10246472;28;2952;-50
2022/09/05 17:14:24;;;;;;;;;;;;;;;23.30;49.80;95981.22;10255168;28;2013;-47
2022/09/05 17:19:25;;;;;;;;;;;;;;;23.30;49.83;95981.22;10247299;28;1910;-50
2022/09/05 17:24:25;;;;;;;;;;;;;;;23.29;49.88;95972.50;10263139;28;1744;-48
2022/09/05 17:29:39;;;;;;;;;;;;;;;23.29;50.15;95974.34;10244678;28;2094;-47
2022/09/05 17:34:48;;;;;;;;;;;;;;;23.29;49.94;95969.03;10244724;28;2005;-50
2022/09/05 17:39:57;;;;;;;;;;;;;;;23.28;49.95;95978.88;10257128;28;1942;-49
2022/09/05 17:45:16;;;;;;;;;;;;;;;23.27;50.14;95977.28;10250424;28;1932;-48
2022/09/05 17:50:19;;;;;;;;;;;;;;;23.29;50.55;95977.78;10248763;28;1930;-49
2022/09/05 17:55:20;;;;;;;;;;;;;;;23.28;50.52;95978.88;10248794;28;2185;-47
2022/09/05 18:00:39;;;;;;;;;;;;;;;23.29;50.56;95974.34;10260344;28;1975;-45
2022/09/05 18:05:55;;;;;;;;;;;;;;;23.29;50.61;95979.63;10244116;28;1973;-45
2022/09/05 18:11:03;;;;;;;;;;;;;;;23.27;50.67;95977.28;10250896;28;1939;-50
2022/09/05 18:16:09;;;;;;;;;;;;;;;23.29;50.55;95987.56;10263356;28;2006;-52
2022/09/05 18:21:12;;;;;;;;;;;;;;;23.30;50.36;95989.16;10249304;28;1873;-49
2022/09/05 18:26:19;;;;;;;;;;;;;;;23.30;50.45;95991.78;10261287;28;1983;-46
2022/09/05 18:31:38;;;;;;;;;;;;;;;23.32;50.22;95989.69;10249100;28;1946;-46
2022/09/05 18:36:48;;;;;;;;;;;;;;;23.31;50.09;95990.72;10250781;28;1926;-48
2022/09/05 18:41:59;;;;;;;;;;;;;;;23.30;50.05;96007.66;10245531;28;1956;-49
2022/09/05 18:47:00;;;;;;;;;;;;;;;23.26;50.18;95991.59;10250978;28;2197;-48
2022/09/05 18:52:04;;;;;;;;;;;;;;;23.26;50.28;95998.72;10257608;28;1835;-50
2022/09/05 18:57:08;;;;;;;;;;;;;;;23.25;50.36;95992.66;10256356;28;1859;-51
2022/09/05 19:02:25;;;;;;;;;;;;;;;23.25;50.32;95994.50;10249127;28;1954;-49
2022/09/05 19:07:29;;;;;;;;;;;;;;;23.25;50.36;95990.00;10248614;28;1995;-47
2022/09/05 19:12:40;;;;;;;;;;;;;;;23.26;50.53;95988.16;10257759;28;1851;-49
2022/09/05 19:17:41;;;;;;;;;;;;;;;23.25;50.47;95991.84;10254066;28;1910;-51
2022/09/05 19:22:47;;;;;;;;;;;;;;;23.26;50.60;95988.16;10242510;28;1864;-48
2022/09/05 19:27:48;;;;;;;;;;;;;;;23.26;50.62;95996.09;10264648;28;2189;-51
2022/09/05 19:32:48;;;;;;;;;;;;;;;23.26;50.65;95988.16;10247524;28;1907;-50
2022/09/05 19:37:49;;;;;;;;;;;;;;;23.26;50.79;95998.72;10259636;28;1829;-51
2022/09/05 19:42:49;;;;;;;;;;;;;;;23.26;50.79;95994.22;10252204;28;1910;-51
2022/09/05 19:47:50;;;;;;;;;;;;;;;23.25;50.66;95986.56;10271916;28;1986;-47
2022/09/05 19:52:52;;;;;;;;;;;;;;;23.27;50.81;95981.78;10256748;28;1834;-50
2022/09/05 19:57:52;;;;;;;;;;;;;;;23.26;50.88;95973.06;10257887;28;2017;-46
2022/09/05 20:02:54;;;;;;;;;;;;;;;23.26;51.21;95981.00;10254123;28;1824;-47
2022/09/05 20:07:55;;;;;;;;;;;;;;;23.27;50.77;95976.47;10251012;28;1914;-53
2022/09/05 20:12:55;;;;;;;;;;;;;;;23.27;51.11;95971.19;10252362;28;1962;-48
2022/09/05 20:17:56;;;;;;;;;;;;;;;23.27;50.99;95977.28;10254278;28;1981;-48
2022/09/05 20:22:58;;;;;;;;;;;;;;;23.27;51.08;95977.28;10259650;28;1837;-49
2022/09/05 20:27:58;;;;;;;;;;;;;;;23.28;51.01;95972.78;10260952;28;1977;-48
2022/09/05 20:33:04;;;;;;;;;;;;;;;23.28;51.38;95972.78;10260618;28;1883;-51
2022/09/05 20:38:14;;;;;;;;;;;;;;;23.28;50.88;95970.94;10269039;28;1809;-46
2022/09/05 20:43:17;;;;;;;;;;;;;;;23.29;50.88;95969.84;10277494;28;1904;-47
2022/09/05 20:48:20;;;;;;;;;;;;;;;23.29;51.01;95969.84;10265484;28;1910;-49
2022/09/05 20:53:21;;;;;;;;;;;;;;;23.30;50.98;95970.63;10264326;28;1880;-52
2022/09/05 20:58:22;;;;;;;;;;;;;;;23.29;51.11;95956.63;10256311;28;1836;-49
2022/09/05 21:03:26;;;;;;;;;;;;;;;23.30;50.92;95966.13;10255254;28;2018;-47
2022/09/05 21:08:31;;;;;;;;;;;;;;;23.29;51.12;95974.34;10256034;28;1977;-47
2022/09/05 21:13:33;;;;;;;;;;;;;;;23.29;51.01;95958.47;10255846;28;1894;-50
2022/09/05 21:18:33;;;;;;;;;;;;;;;23.28;51.25;95954.25;10255584;28;1926;-47
2022/09/05 21:23:34;;;;;;;;;;;;;;;23.27;51.06;95950.81;10249807;28;2001;-48
2022/09/05 21:28:35;;;;;;;;;;;;;;;23.29;51.01;95955.81;10263277;28;1906;-50
2022/09/05 21:33:36;;;;;;;;;;;;;;;23.28;51.16;95956.91;10250481;28;1909;-50
2022/09/05 21:38:39;;;;;;;;;;;;;;;23.28;51.26;95960.34;10261728;28;1903;-48
2022/09/05 21:43:40;;;;;;;;;;;;;;;23.28;51.05;95956.91;10244298;28;2100;-50
2022/09/05 21:48:41;;;;;;;;;;;;;;;23.27;51.13;95957.97;10250477;28;1931;-50
2022/09/05 21:53:45;;;;;;;;;;;;;;;23.27;50.89;95957.97;10247019;28;1883;-49
2022/09/05 21:58:50;;;;;;;;;;;;;;;23.27;50.94;95965.91;10243963;28;1864;-49
2022/09/05 22:03:57;;;;;;;;;;;;;;;23.27;50.92;95950.81;10247646;28;1970;-51
2022/09/05 22:08:57;;;;;;;;;;;;;;;23.28;50.98;95943.69;10244773;28;1967;-49
2022/09/05 22:13:58;;;;;;;;;;;;;;;23.28;51.02;95938.41;10258325;28;1935;-47
2022/09/05 22:18:59;;;;;;;;;;;;;;;23.30;51.00;95949.47;10246203;28;1828;-50
2022/09/05 22:24:02;;;;;;;;;;;;;;;23.30;50.83;95942.34;10245760;28;2070;-47
2022/09/05 22:29:04;;;;;;;;;;;;;;;23.30;50.73;95950.28;10257960;28;1969;-48
2022/09/05 22:34:04;;;;;;;;;;;;;;;23.28;50.77;95944.47;10258631;28;1832;-51
2022/09/05 22:39:05;;;;;;;;;;;;;;;23.28;50.95;95938.41;10243788;28;1930;-47
2022/09/05 22:44:10;;;;;;;;;;;;;;;23.28;50.85;95935.75;10242042;28;2027;-48
2022/09/05 22:49:10;;;;;;;;;;;;;;;23.28;51.02;95930.47;10245614;28;1906;-50
2022/09/05 22:54:11;;;;;;;;;;;;;;;23.28;50.80;95930.47;10245184;28;1867;-47
2022/09/05 22:59:15;;;;;;;;;;;;;;;23.29;50.77;95929.38;10244922;28;2027;-49
2022/09/05 23:04:15;;;;;;;;;;;;;;;23.30;50.67;95930.97;10249486;28;1934;-51
2022/09/05 23:09:15;;;;;;;;;;;;;;;23.30;50.97;95936.25;10242141;28;1911;-48
2022/09/05 23:14:15;;;;;;;;;;;;;;;23.30;50.72;95925.66;10245297;28;2024;-46
2022/09/05 23:19:16;;;;;;;;;;;;;;;23.31;50.68;95929.88;10243239;28;1753;-51
2022/09/05 23:24:16;;;;;;;;;;;;;;;23.33;50.69;95925.13;10254483;28;1956;-52
2022/09/05 23:29:16;;;;;;;;;;;;;;;;;;10246966;28;1929;-47
2022/09/05 23:34:20;;;;;;;;;;;;;;;23.33;50.63;95922.47;10243977;28;1875;-49
2022/09/05 23:39:25;;;;;;;;;;;;;;;23.34;50.45;95921.41;10246873;28;1851;-48
2022/09/05 23:44:25;;;;;;;;;;;;;;;23.33;50.74;95906.59;10240807;28;1878;-47
2022/09/05 23:49:28;;;;;;;;;;;;;;;23.34;50.55;95908.19;10245043;28;1946;-48
2022/09/05 23:54:28;;;;;;;;;;;;;;;23.33;50.42;95901.31;10244119;28;1931;-49
2022/09/05 23:59:28;;;;;;;;;;;;;;;23.34;50.69;95908.19;10246047;28;1955;-47
